Time;durP1;ratioP1;P1;durP2;ratioP2;P2;SDS_P1;SDS_P2;PMS_P1;PMS_P2;Temp;Humidity;BMP_temperature;BMP_pressure;BME280_temperature;BME280_humidity;BME280_pressure;Samples;Min_cycle;Max_cycle;Signal;HPM_P1;HPM_P2
2021/09/14 00:01:19;;;;;;;5.20;4.80;;;;;;;21.06;80.04;96280.28;4975704;28;20182;-61
2021/09/14 00:03:44;;;;;;;6.20;5.63;;;;;;;21.04;80.16;96271.75;4975695;28;20178;-56
2021/09/14 00:06:10;;;;;;;4.90;4.60;;;;;;;21.01;80.06;96269.69;4975963;28;20201;-56
2021/09/14 00:08:35;;;;;;;6.20;5.70;;;;;;;21.02;80.03;96271.25;4975948;28;20230;-55
2021/09/14 00:11:00;;;;;;;6.93;6.33;;;;;;;21.03;79.97;96270.19;4975915;28;20206;-61
2021/09/14 00:13:26;;;;;;;6.30;5.63;;;;;;;21.04;79.85;96267.22;4975362;28;20174;-60
2021/09/14 00:15:51;;;;;;;6.77;5.60;;;;;;;21.04;79.71;96266.41;4975569;28;20249;-56
2021/09/14 00:18:17;;;;;;;6.83;5.63;;;;;;;21.04;79.61;96267.22;4974415;28;20186;-60
2021/09/14 00:20:42;;;;;;;6.33;5.83;;;;;;;21.03;79.84;96267.53;4975641;28;20261;-60
2021/09/14 00:23:08;;;;;;;5.43;5.03;;;;;;;21.02;79.61;96263.25;4975264;28;20170;-60
2021/09/14 00:25:35;;;;;;;5.90;5.50;;;;;;;20.97;79.79;96269.47;4975621;28;20189;-56
2021/09/14 00:28:01;;;;;;;7.10;6.40;;;;;;;20.95;79.91;96265.47;4975595;28;20194;-56
2021/09/14 00:30:26;;;;;;;5.70;5.30;;;;;;;20.97;79.71;96265.97;4975117;28;20533;-60
2021/09/14 00:32:52;;;;;;;5.90;5.40;;;;;;;20.95;79.47;96262.81;4975084;28;20249;-60
2021/09/14 00:35:18;;;;;;;6.40;5.90;;;;;;;20.96;79.73;96267.09;4975215;28;20915;-56
2021/09/14 00:37:43;;;;;;;5.53;5.03;;;;;;;20.92;79.85;96260.72;4975076;28;20542;-60
2021/09/14 00:40:10;;;;;;;5.97;5.43;;;;;;;20.92;80.01;96264.19;4975246;28;20194;-60
2021/09/14 00:42:35;;;;;;;7.53;6.87;;;;;;;20.93;79.95;96263.09;4975106;28;20170;-58
2021/09/14 00:45:02;;;;;;;5.90;5.47;;;;;;;20.91;80.08;96264.47;4974807;28;20501;-60
2021/09/14 00:47:28;;;;;;;5.93;5.50;;;;;;;20.89;80.09;96262.09;4974765;28;20180;-60
2021/09/14 00:49:53;;;;;;;6.30;5.80;;;;;;;20.88;80.16;96254.38;4975423;28;20498;-56
2021/09/14 00:52:19;;;;;;;6.27;5.73;;;;;;;20.85;80.09;96261.13;4975173;28;20244;-55
2021/09/14 00:54:44;;;;;;;6.70;6.10;;;;;;;20.81;80.47;96251.28;4974790;28;20273;-60
2021/09/14 00:57:10;;;;;;;5.30;5.00;;;;;;;20.78;80.40;96255.34;4974418;28;20629;-60
2021/09/14 00:59:36;;;;;;;6.43;5.93;;;;;;;20.76;80.81;96249.53;4974534;28;20237;-56
2021/09/14 01:02:02;;;;;;;5.50;5.10;;;;;;;20.75;80.62;96252.47;4975073;28;20220;-55
2021/09/14 01:04:31;;;;;;;6.00;5.50;;;;;;;20.74;80.61;96245.53;4974548;28;20520;-59
2021/09/14 01:06:57;;;;;;;6.20;5.70;;;;;;;20.72;80.86;96242.38;4974547;28;20437;-59
2021/09/14 01:09:23;;;;;;;5.70;5.30;;;;;;;20.70;80.70;96248.00;4974897;28;20449;-55
2021/09/14 01:11:51;;;;;;;7.03;6.50;;;;;;;20.69;80.92;96243.72;4974768;28;20476;-59
2021/09/14 01:14:16;;;;;;;6.40;5.90;;;;;;;20.68;80.96;96236.81;4973685;28;20425;-55
2021/09/14 01:16:42;;;;;;;6.70;6.10;;;;;;;20.68;80.80;96241.34;4974838;28;20509;-59
2021/09/14 01:19:10;;;;;;;6.53;6.00;;;;;;;20.68;80.67;96242.16;4974675;28;20586;-55
2021/09/14 01:21:36;;;;;;;6.10;5.70;;;;;;;20.62;81.18;96239.88;4973517;28;20170;-59
2021/09/14 01:24:02;;;;;;;5.93;5.53;;;;;;;20.59;81.07;96230.56;4974160;28;20907;-59
2021/09/14 01:26:27;;;;;;;6.23;5.80;;;;;;;20.57;81.57;96227.38;4956279;28;20202;-59
2021/09/14 01:28:53;;;;;;;6.00;5.60;;;;;;;20.57;81.34;96231.91;4966838;28;20189;-55
2021/09/14 01:31:19;;;;;;;6.30;5.90;;;;;;;20.52;81.76;96235.47;4974443;28;20202;-59
2021/09/14 01:33:52;;;;;;;6.43;5.87;;;;;;;20.54;81.34;96238.66;4974231;28;20406;-55
2021/09/14 01:36:19;;;;;;;6.53;6.03;;;;;;;20.51;81.46;96231.22;4974000;28;20440;-59
2021/09/14 01:38:46;;;;;;;6.83;6.33;;;;;;;20.48;81.85;96237.13;4973897;28;20779;-59
2021/09/14 01:41:12;;;;;;;6.30;5.73;;;;;;;20.45;81.84;96233.16;4974454;28;20952;-56
2021/09/14 01:43:39;;;;;;;6.40;5.90;;;;;;;20.48;81.59;96229.94;4974002;28;20421;-59
2021/09/14 01:46:06;;;;;;;6.63;5.90;;;;;;;20.44;81.69;96231.59;4974203;28;20457;-55
2021/09/14 01:48:31;;;;;;;6.10;5.60;;;;;;;20.41;81.79;96226.03;4974373;28;20409;-59
2021/09/14 01:50:57;;;;;;;6.90;6.40;;;;;;;20.41;81.85;96226.03;4974194;28;20782;-55
2021/09/14 01:53:24;;;;;;;5.97;5.53;;;;;;;20.38;81.86;96226.63;4974065;28;20178;-59
2021/09/14 01:55:50;;;;;;;6.80;6.20;;;;;;;20.35;82.26;96237.88;4974428;28;20289;-55
2021/09/14 01:58:16;;;;;;;6.30;5.80;;;;;;;20.34;82.20;96236.28;4973576;28;20954;-56
2021/09/14 02:00:52;;;;;;;6.80;6.30;;;;;;;20.30;82.54;96232.63;4976488;28;20425;-55
2021/09/14 02:38:32;;;;;;;6.67;6.17;;;;;;;19.99;82.91;96229.56;4977528;28;20520;-55
2021/09/14 02:44:18;;;;;;;6.53;5.93;;;;;;;19.99;83.05;96228.75;4976817;28;20428;-59
2021/09/14 02:59:36;;;;;;;7.60;7.00;;;;;;;19.81;83.82;96224.19;4976795;28;20429;-55
2021/09/14 03:02:03;;;;;;;7.17;6.47;;;;;;;19.84;84.61;96220.97;4977002;28;20166;-55
2021/09/14 03:04:28;;;;;;;10.30;6.40;;;;;;;19.84;84.92;96220.97;4976574;28;20497;-59
2021/09/14 03:06:54;;;;;;;7.67;6.97;;;;;;;19.87;84.83;96220.41;4976935;28;20820;-55
2021/09/14 03:09:19;;;;;;;7.47;6.87;;;;;;;19.91;84.64;96222.19;4976903;28;20178;-59
2021/09/14 03:11:44;;;;;;;7.80;7.10;;;;;;;19.85;85.21;96223.34;4976384;28;20687;-55
2021/09/14 03:14:10;;;;;;;7.47;6.87;;;;;;;19.87;85.34;96223.88;4976265;28;20261;-55
2021/09/14 03:16:36;;;;;;;8.00;7.40;;;;;;;19.88;85.67;96221.97;4976890;28;20193;-55
2021/09/14 03:19:01;;;;;;;8.17;7.47;;;;;;;19.89;85.72;96208.34;4976750;28;20213;-58
2021/09/14 03:21:27;;;;;;;7.83;7.13;;;;;;;19.89;86.22;96216.34;4976717;28;20170;-59
2021/09/14 03:23:52;;;;;;;8.87;7.97;;;;;;;19.93;86.33;96214.69;4976394;28;20179;-55
2021/09/14 03:26:17;;;;;;;8.13;7.50;;;;;;;20.00;86.48;96211.69;4976680;28;20665;-55
2021/09/14 03:28:43;;;;;;;7.93;7.23;;;;;;;19.96;86.74;96214.13;4976348;28;20178;-59
2021/09/14 03:31:08;;;;;;;8.73;7.93;;;;;;;20.00;86.64;96209.78;4976683;28;20198;-59
2021/09/14 03:33:34;;;;;;;8.27;7.53;;;;;;;20.05;86.48;96214.28;4976093;28;20264;-55
2021/09/14 03:36:00;;;;;;;8.67;7.33;;;;;;;20.05;86.31;96206.28;4976564;28;20205;-55
2021/09/14 03:38:25;;;;;;;7.57;6.97;;;;;;;20.04;86.30;96218.00;4976373;28;20228;-59
2021/09/14 03:40:51;;;;;;;9.20;8.40;;;;;;;20.08;86.01;96211.03;4976262;28;20232;-55
2021/09/14 03:43:18;;;;;;;8.50;7.70;;;;;;;20.07;86.05;96204.13;4975735;28;20185;-59
2021/09/14 03:45:46;;;;;;;9.50;8.60;;;;;;;20.05;86.24;96212.41;4976202;28;20574;-59
2021/09/14 03:48:11;;;;;;;8.83;7.93;;;;;;;20.04;86.23;96208.13;4976150;28;20416;-59
2021/09/14 03:50:37;;;;;;;8.77;7.97;;;;;;;20.02;86.39;96207.63;4975829;28;20414;-56
2021/09/14 03:53:02;;;;;;;7.70;7.03;;;;;;;20.07;85.93;96212.91;4975883;28;20398;-56
2021/09/14 03:55:28;;;;;;;8.07;7.30;;;;;;;20.03;85.85;96203.91;4975960;28;20194;-55
2021/09/14 03:57:53;;;;;;;8.47;7.67;;;;;;;19.99;86.30;96205.56;4976162;28;20194;-55
2021/09/14 04:00:19;;;;;;;8.27;7.57;;;;;;;20.00;86.39;96201.03;4976100;28;20181;-56
2021/09/14 04:02:47;;;;;;;8.97;8.13;;;;;;;19.97;86.68;96197.03;4975799;28;20171;-59
2021/09/14 04:10:28;;;;;;;9.17;8.37;;;;;;;20.02;87.06;96199.63;4975535;28;20434;-55
2021/09/14 04:12:54;;;;;;;8.57;7.87;;;;;;;19.96;86.80;96202.66;4975365;28;20460;-59
2021/09/14 04:15:19;;;;;;;8.53;7.83;;;;;;;20.10;86.62;96190.19;4975695;28;20224;-59
2021/09/14 04:17:44;;;;;;;9.20;8.50;;;;;;;20.08;86.29;96197.69;4975707;28;20628;-55
2021/09/14 04:20:10;;;;;;;9.37;8.47;;;;;;;20.13;86.23;96194.94;4975606;28;20166;-55
2021/09/14 04:22:36;;;;;;;8.30;7.60;;;;;;;20.16;85.84;96197.84;4974248;28;20170;-58
2021/09/14 04:25:01;;;;;;;7.47;6.83;;;;;;;20.23;85.56;96200.97;4975508;28;20487;-55
2021/09/14 04:27:27;;;;;;;9.03;8.20;;;;;;;20.16;85.99;96197.03;4975592;28;20228;-56
2021/09/14 04:29:52;;;;;;;8.50;7.80;;;;;;;20.26;85.72;96200.38;4975835;28;20198;-56
2021/09/14 04:32:17;;;;;;;7.80;7.10;;;;;;;20.33;85.23;96202.66;4975387;28;20209;-55
2021/09/14 04:34:43;;;;;;;8.93;8.13;;;;;;;20.32;85.08;96193.09;4975072;28;20205;-55
2021/09/14 04:37:08;;;;;;;9.10;8.40;;;;;;;20.40;84.76;96195.88;4974790;28;20194;-60
2021/09/14 04:39:34;;;;;;;9.13;8.23;;;;;;;20.42;84.44;96191.03;4975328;28;20190;-59
2021/09/14 04:41:59;;;;;;;8.23;7.43;;;;;;;20.41;84.47;96189.47;4975365;28;20174;-56
2021/09/14 04:44:25;;;;;;;9.93;9.13;;;;;;;20.41;84.10;96186.78;4974670;28;20205;-56
2021/09/14 04:46:50;;;;;;;8.30;7.67;;;;;;;20.48;83.85;96186.41;4975202;28;20170;-55
2021/09/14 04:49:16;;;;;;;7.63;7.03;;;;;;;20.46;83.83;96184.03;4975196;28;20197;-55
2021/09/14 04:51:41;;;;;;;8.27;7.60;;;;;;;20.46;83.70;96192.03;4975224;28;20194;-59
2021/09/14 04:54:06;;;;;;;7.50;6.90;;;;;;;20.45;83.51;96190.44;4974721;28;20186;-55
2021/09/14 04:56:32;;;;;;;6.23;5.73;;;;;;;20.43;83.63;96197.19;4975043;28;20190;-59
2021/09/14 04:58:57;;;;;;;8.30;7.50;;;;;;;20.45;83.78;96195.78;4974848;28;20170;-59
2021/09/14 05:01:22;;;;;;;7.80;7.20;;;;;;;20.40;83.63;96195.06;4974922;28;20189;-55
2021/09/14 05:03:48;;;;;;;7.70;6.90;;;;;;;20.40;83.35;96192.41;4974495;28;20190;-59
2021/09/14 05:06:14;;;;;;;7.60;7.00;;;;;;;20.31;83.54;96197.63;4974647;28;20256;-55
2021/09/14 05:08:39;;;;;;;8.50;7.50;;;;;;;20.30;83.52;96198.72;4974614;28;20180;-55
2021/09/14 05:11:05;;;;;;;8.27;7.57;;;;;;;20.27;83.66;96193.94;4974814;28;20265;-55
2021/09/14 05:13:30;;;;;;;7.77;7.17;;;;;;;20.26;83.41;96192.38;4974319;28;20209;-57
2021/09/14 05:15:57;;;;;;;7.97;7.27;;;;;;;20.22;83.61;96194.03;4974243;28;20194;-59
2021/09/14 05:18:23;;;;;;;8.10;7.50;;;;;;;20.20;83.46;96188.19;4974587;28;20178;-55
2021/09/14 05:20:50;;;;;;;9.30;7.90;;;;;;;20.16;83.42;96191.69;4974974;28;20429;-55
2021/09/14 05:23:19;;;;;;;8.30;7.70;;;;;;;19.99;83.80;96192.22;4974427;28;20414;-59
2021/09/14 05:25:45;;;;;;;8.30;7.60;;;;;;;19.98;84.10;96197.84;4974474;28;20433;-56
2021/09/14 05:28:13;;;;;;;7.70;7.00;;;;;;;19.83;84.61;96201.50;4974826;28;20890;-55
2021/09/14 05:30:40;;;;;;;7.43;6.80;;;;;;;19.97;84.31;96205.03;4974640;28;20464;-59
2021/09/14 05:33:06;;;;;;;7.57;6.97;;;;;;;20.10;84.51;96208.88;4974954;28;20540;-55
2021/09/14 05:35:57;;;;;;;7.30;6.70;;;;;;;19.89;84.12;96213.69;4980642;28;20556;-59
2021/09/14 05:38:24;;;;;;;8.40;7.70;;;;;;;19.97;83.62;96210.38;4979621;28;20209;-59
2021/09/14 05:40:53;;;;;;;7.60;7.00;;;;;;;20.19;82.83;96215.16;4980873;28;20417;-59
2021/09/14 05:43:20;;;;;;;7.70;7.00;;;;;;;20.28;82.74;96216.91;4980569;28;20500;-59
2021/09/14 05:45:45;;;;;;;7.20;6.60;;;;;;;20.35;82.95;96220.00;4980970;28;20433;-55
2021/09/14 05:48:11;;;;;;;8.50;7.70;;;;;;;20.39;82.83;96209.50;4980859;28;20479;-55
2021/09/14 05:50:36;;;;;;;7.83;7.13;;;;;;;20.49;82.87;96214.69;4980426;28;20178;-60
2021/09/14 05:53:02;;;;;;;7.50;6.90;;;;;;;20.52;82.83;96208.78;4980395;28;20190;-59
2021/09/14 05:55:27;;;;;;;7.17;6.57;;;;;;;20.55;82.62;96213.53;4980627;28;20193;-55
2021/09/14 05:57:53;;;;;;;7.00;6.50;;;;;;;20.60;82.83;96218.00;4980803;28;20182;-55
2021/09/14 06:00:21;;;;;;;7.00;6.30;;;;;;;20.70;82.71;96215.16;4980694;28;20257;-60
2021/09/14 06:02:46;;;;;;;15.60;7.73;;;;;;;20.68;82.95;96211.97;4980383;28;20178;-56
2021/09/14 06:05:12;;;;;;;7.40;6.80;;;;;;;20.69;83.27;96211.69;4973610;28;20468;-55
2021/09/14 06:07:37;;;;;;;7.30;6.70;;;;;;;20.72;83.21;96215.66;4980747;28;20186;-59
2021/09/14 06:10:03;;;;;;;8.53;7.60;;;;;;;20.74;83.54;96216.16;4981065;28;20581;-59
2021/09/14 06:12:28;;;;;;;7.97;7.37;;;;;;;20.75;83.72;96213.19;4980665;28;20225;-55
2021/09/14 06:14:53;;;;;;;7.10;6.60;;;;;;;20.78;83.65;96209.16;4980162;28;20240;-55
2021/09/14 06:17:19;;;;;;;7.40;6.70;;;;;;;20.80;83.60;96215.00;4979655;28;20262;-59
2021/09/14 06:19:44;;;;;;;6.40;5.90;;;;;;;20.74;80.07;96205.47;4980474;28;20181;-55
2021/09/14 06:22:10;;;;;;;7.30;6.70;;;;;;;20.75;79.47;96205.19;4980456;28;20217;-59
2021/09/14 06:24:36;;;;;;;6.83;6.33;;;;;;;20.79;79.62;96202.72;4980158;28;20229;-60
2021/09/14 06:27:02;;;;;;;6.87;5.87;;;;;;;20.83;80.35;96209.84;4980384;28;20236;-59
2021/09/14 06:29:27;;;;;;;7.40;6.80;;;;;;;20.91;80.92;96214.50;4980717;28;20264;-59
2021/09/14 06:31:52;;;;;;;6.73;6.03;;;;;;;20.99;81.61;96221.06;4980570;28;20452;-55
2021/09/14 06:34:18;;;;;;;7.43;6.83;;;;;;;21.03;81.83;96220.22;4979784;28;20321;-59
2021/09/14 06:36:43;;;;;;;5.60;5.20;;;;;;;21.09;82.25;96216.34;4979523;28;20201;-59
2021/09/14 06:39:09;;;;;;;6.70;6.20;;;;;;;21.06;82.01;96224.97;4980443;28;20182;-55
2021/09/14 06:41:34;;;;;;;6.83;6.23;;;;;;;20.99;78.78;96229.06;4980499;28;20178;-59
2021/09/14 06:43:59;;;;;;;7.17;6.50;;;;;;;20.93;78.72;96230.25;4980096;28;20182;-59
2021/09/14 06:46:25;;;;;;;6.63;6.03;;;;;;;21.02;78.58;96233.84;4976919;28;20198;-59
2021/09/14 06:48:51;;;;;;;8.00;7.20;;;;;;;21.06;79.02;96227.63;4977497;28;20644;-59
2021/09/14 06:51:17;;;;;;;6.93;6.20;;;;;;;21.16;78.39;96224.78;4976814;28;20194;-55
2021/09/14 06:53:43;;;;;;;9.30;6.53;;;;;;;21.31;79.02;96229.84;4977006;28;20420;-56
2021/09/14 06:56:08;;;;;;;6.80;6.30;;;;;;;21.40;78.43;96222.72;4977145;28;20281;-59
2021/09/14 06:58:34;;;;;;;7.30;5.87;;;;;;;21.50;78.45;96213.72;4977086;28;20178;-58
2021/09/14 07:01:00;;;;;;;8.70;6.30;;;;;;;21.52;78.55;96232.13;4977146;28;20515;-60
2021/09/14 07:03:25;;;;;;;6.50;5.93;;;;;;;21.64;77.67;96224.38;4976746;28;20410;-55
2021/09/14 07:05:51;;;;;;;6.70;6.20;;;;;;;21.70;78.32;96232.03;4972486;28;20628;-61
2021/09/14 07:08:16;;;;;;;5.80;5.40;;;;;;;21.73;78.63;96235.97;4976786;28;20205;-62
2021/09/14 07:10:41;;;;;;;10.17;6.03;;;;;;;21.68;78.26;96236.06;4977019;28;20174;-55
2021/09/14 07:13:07;;;;;;;6.50;6.00;;;;;;;21.77;76.65;96239.63;4976529;28;20213;-55
2021/09/14 07:15:32;;;;;;;6.00;5.50;;;;;;;21.81;76.94;96236.09;4976778;28;20202;-55
2021/09/14 07:17:58;;;;;;;6.50;6.00;;;;;;;21.77;75.93;96232.41;4976715;28;20202;-54
2021/09/14 07:20:23;;;;;;;6.70;6.00;;;;;;;21.73;75.71;96235.97;4976601;28;20220;-56
2021/09/14 07:22:49;;;;;;;6.37;5.87;;;;;;;21.71;75.45;96236.25;4976457;28;20170;-56
2021/09/14 07:25:14;;;;;;;6.00;5.57;;;;;;;21.89;75.33;96230.03;4976515;28;20196;-55
2021/09/14 07:27:40;;;;;;;7.17;5.60;;;;;;;21.89;74.83;96232.69;4976876;28;20538;-55
2021/09/14 07:30:06;;;;;;;6.10;5.60;;;;;;;22.06;75.19;96230.19;4976517;28;20591;-55
2021/09/14 07:32:31;;;;;;;5.97;5.47;;;;;;;21.93;74.58;96227.53;4976507;28;20190;-60
2021/09/14 07:34:57;;;;;;;6.10;5.57;;;;;;;22.05;74.99;96227.84;4975761;28;20444;-55
2021/09/14 07:37:22;;;;;;;5.90;5.40;;;;;;;22.10;74.69;96227.72;4976290;28;20206;-55
2021/09/14 07:39:48;;;;;;;5.63;5.00;;;;;;;22.09;74.71;96229.59;4976451;28;20177;-56
2021/09/14 07:42:15;;;;;;;5.43;5.03;;;;;;;22.02;74.18;96231.88;4975898;28;20174;-58
2021/09/14 07:44:40;;;;;;;6.13;5.63;;;;;;;22.01;74.85;96235.66;4975467;28;20445;-59
2021/09/14 07:47:06;;;;;;;5.30;4.90;;;;;;;22.02;75.21;96231.09;4971629;28;20444;-57
2021/09/14 07:49:31;;;;;;;5.97;5.53;;;;;;;22.01;74.82;96234.88;4972560;28;20210;-59
2021/09/14 07:51:56;;;;;;;5.77;5.30;;;;;;;22.07;75.02;96242.47;4972519;28;20242;-57
2021/09/14 07:54:22;;;;;;;6.07;5.67;;;;;;;21.99;74.77;96245.88;4972187;28;20170;-58
2021/09/14 07:56:47;;;;;;;6.47;5.93;;;;;;;22.12;74.96;96245.03;4971282;28;20236;-56
2021/09/14 07:59:13;;;;;;;6.80;6.20;;;;;;;22.21;74.40;96247.81;4971656;28;20197;-59
2021/09/14 08:01:39;;;;;;;6.20;5.67;;;;;;;22.16;74.40;96243.34;4972367;28;20178;-55
2021/09/14 08:04:05;;;;;;;5.93;5.53;;;;;;;22.32;75.34;96244.59;4970406;28;20181;-57
2021/09/14 08:06:30;;;;;;;5.70;5.30;;;;;;;22.31;74.40;96235.00;4952958;28;20442;-59
2021/09/14 08:08:56;;;;;;;6.07;5.57;;;;;;;22.22;74.85;96247.50;4953025;28;20236;-55
2021/09/14 08:11:21;;;;;;;6.40;5.90;;;;;;;22.36;74.67;96240.22;4952486;28;20261;-55
2021/09/14 08:13:49;;;;;;;6.50;5.60;;;;;;;22.41;74.42;96244.69;4965415;28;20178;-57
2021/09/14 08:16:15;;;;;;;6.43;5.77;;;;;;;22.50;74.74;96256.25;4972233;28;20240;-57
2021/09/14 08:18:40;;;;;;;6.00;5.50;;;;;;;22.48;74.84;96253.84;4972184;28;20405;-55
2021/09/14 08:21:06;;;;;;;6.37;5.50;;;;;;;22.44;74.01;96252.09;4970583;28;20181;-56
2021/09/14 08:23:33;;;;;;;5.60;5.20;;;;;;;22.54;74.57;96254.53;4971404;28;20174;-55
2021/09/14 08:25:59;;;;;;;6.50;5.90;;;;;;;22.58;74.04;96257.41;4972037;28;20663;-59
2021/09/14 08:28:24;;;;;;;6.53;5.97;;;;;;;22.68;73.73;96255.31;4971465;28;20952;-59
2021/09/14 08:30:50;;;;;;;6.17;5.67;;;;;;;22.84;73.99;96255.72;4972014;28;20177;-55
2021/09/14 08:33:15;;;;;;;6.17;5.67;;;;;;;22.72;73.47;96253.59;4971509;28;20202;-59
2021/09/14 08:35:41;;;;;;;6.60;6.10;;;;;;;22.65;72.91;96261.25;4971365;28;20719;-57
2021/09/14 08:38:06;;;;;;;6.13;5.57;;;;;;;22.65;73.85;96253.22;4971878;28;20728;-62
2021/09/14 08:40:31;;;;;;;6.87;6.27;;;;;;;22.89;73.98;96250.25;4971790;28;20253;-60
2021/09/14 08:42:58;;;;;;;5.93;5.40;;;;;;;22.95;73.07;96249.81;4970947;28;20999;-58
2021/09/14 08:45:24;;;;;;;5.60;5.20;;;;;;;23.03;72.97;96246.38;4971577;28;20662;-58
2021/09/14 08:47:50;;;;;;;6.30;5.33;;;;;;;23.21;73.23;96249.94;4971121;28;20417;-57
2021/09/14 08:50:15;;;;;;;5.70;5.30;;;;;;;23.48;72.22;96249.78;4971561;28;20417;-61
2021/09/14 08:52:41;;;;;;;5.50;5.10;;;;;;;23.56;71.80;96246.34;4971327;28;20511;-58
2021/09/14 08:55:06;;;;;;;5.73;5.33;;;;;;;23.73;72.16;96249.09;4971488;28;20221;-58
2021/09/14 08:57:32;;;;;;;5.70;5.30;;;;;;;23.74;70.56;96237.25;4970963;28;20228;-60
2021/09/14 08:59:58;;;;;;;5.60;5.10;;;;;;;23.90;71.00;96241.06;4970911;28;20638;-61
2021/09/14 09:02:24;;;;;;;6.53;5.90;;;;;;;23.81;70.53;96242.94;4971127;28;20256;-60
2021/09/14 09:05:02;;;;;;;5.47;5.07;;;;;;;23.80;69.70;96233.31;4971042;28;20194;-58
2021/09/14 09:07:37;;;;;;;5.97;5.37;;;;;;;24.04;70.77;96235.59;4971504;28;20409;-62
2021/09/14 09:10:13;;;;;;;5.97;5.40;;;;;;;24.24;70.27;96235.78;4969659;28;20492;-60
2021/09/14 09:12:44;;;;;;;5.93;5.43;;;;;;;24.34;69.93;96234.69;4970747;28;20452;-59
2021/09/14 09:15:20;;;;;;;5.50;5.00;;;;;;;24.43;69.45;96238.94;4971263;28;20500;-61
2021/09/14 09:17:46;;;;;;;5.80;5.30;;;;;;;24.53;68.47;96237.84;4971152;28;20421;-58
2021/09/14 09:20:11;;;;;;;5.10;4.73;;;;;;;24.62;67.19;96235.16;4971393;28;20460;-59
2021/09/14 09:22:38;;;;;;;5.50;5.10;;;;;;;24.62;67.46;96237.84;4970627;28;20585;-59
2021/09/14 09:25:04;;;;;;;6.13;5.63;;;;;;;24.64;67.95;96244.47;4971242;28;20197;-58
2021/09/14 09:27:31;;;;;;;5.40;5.00;;;;;;;24.75;68.05;96242.28;4971815;28;21000;-61
2021/09/14 09:30:02;;;;;;;6.47;5.00;;;;;;;24.95;66.72;96252.34;4974550;28;20966;-59
2021/09/14 09:32:48;;;;;;;5.77;5.27;;;;;;;24.96;65.90;96251.25;4974093;28;20480;-61
2021/09/14 09:35:27;;;;;;;7.30;5.50;;;;;;;24.98;65.32;96255.22;4974292;28;20803;-58
2021/09/14 09:37:54;;;;;;;4.80;4.43;;;;;;;24.96;66.03;96249.38;4973905;28;20916;-61
2021/09/14 09:40:24;;;;;;;5.03;4.63;;;;;;;25.11;66.26;96254.22;4973077;28;20414;-61
2021/09/14 09:42:50;;;;;;;5.30;4.80;;;;;;;25.20;64.28;96246.16;4973955;28;20437;-59
2021/09/14 09:45:19;;;;;;;5.07;4.67;;;;;;;25.16;64.71;96243.31;4974347;28;20429;-61
2021/09/14 09:47:49;;;;;;;5.87;5.37;;;;;;;25.23;64.40;96238.22;4974439;28;20481;-62
2021/09/14 09:50:15;;;;;;;7.13;6.13;;;;;;;25.44;64.78;96241.00;4973159;28;20512;-58
2021/09/14 09:52:43;;;;;;;5.67;5.30;;;;;;;25.51;64.49;96241.28;4973412;28;20987;-59
2021/09/14 09:55:10;;;;;;;5.70;5.20;;;;;;;25.50;63.43;96233.53;4974220;28;20433;-58
2021/09/14 09:57:36;;;;;;;5.43;5.03;;;;;;;25.60;64.78;96236.66;4972688;28;20785;-61
2021/09/14 10:00:08;;;;;;;6.43;5.30;;;;;;;25.67;63.38;96233.47;4974352;28;20410;-61
2021/09/14 10:02:34;;;;;;;6.60;4.97;;;;;;;25.70;64.27;96233.63;4974233;28;20410;-62
2021/09/14 10:05:02;;;;;;;5.00;4.60;;;;;;;25.61;62.12;96240.16;4973960;28;20441;-61
2021/09/14 10:07:30;;;;;;;5.30;4.90;;;;;;;25.82;63.94;96230.25;4974275;28;20444;-62
2021/09/14 10:09:57;;;;;;;5.70;5.20;;;;;;;25.91;63.61;96226.34;4974174;28;20418;-59
2021/09/14 10:12:25;;;;;;;5.67;5.20;;;;;;;25.91;63.55;96234.44;4973658;28;20465;-59
2021/09/14 10:14:59;;;;;;;6.27;5.03;;;;;;;26.15;63.52;96231.16;4973765;28;20441;-59
2021/09/14 10:17:26;;;;;;;6.50;6.00;;;;;;;26.02;62.01;96232.16;4974283;28;20428;-59
2021/09/14 10:19:52;;;;;;;8.13;5.40;;;;;;;26.34;63.10;96234.19;4974056;28;20417;-61
2021/09/14 10:22:23;;;;;;;6.20;5.60;;;;;;;26.36;60.70;96227.34;4977982;28;20480;-61
2021/09/14 10:24:51;;;;;;;6.17;5.77;;;;;;;26.36;62.92;96227.34;4977334;28;20190;-58
2021/09/14 10:27:17;;;;;;;6.37;5.77;;;;;;;26.21;62.66;96230.66;4977554;28;20901;-58
2021/09/14 10:29:42;;;;;;;6.33;5.90;;;;;;;26.30;62.86;96235.97;4977631;28;20483;-61
2021/09/14 10:32:16;;;;;;;5.93;5.53;;;;;;;26.45;62.49;96232.69;4977239;28;20190;-59
2021/09/14 10:34:53;;;;;;;6.77;6.17;;;;;;;26.57;62.85;96230.03;4977264;28;20627;-61
2021/09/14 10:37:19;;;;;;;6.90;6.30;;;;;;;26.45;62.00;96230.00;4977111;28;20772;-62
2021/09/14 10:39:45;;;;;;;6.20;5.67;;;;;;;26.66;63.36;96232.66;4977634;28;20417;-58
2021/09/14 10:42:15;;;;;;;5.73;5.27;;;;;;;26.80;62.93;96228.56;4977168;28;20174;-59
2021/09/14 10:44:42;;;;;;;6.50;6.00;;;;;;;26.95;63.46;96230.66;4976783;28;20859;-61
2021/09/14 10:47:14;;;;;;;7.10;6.37;;;;;;;27.00;62.44;96230.44;4977304;28;20424;-58
2021/09/14 10:50:03;;;;;;;6.00;5.40;;;;;;;27.02;61.63;96228.19;4976116;28;20472;-62
2021/09/14 10:52:39;;;;;;;6.10;5.60;;;;;;;26.95;61.61;96238.75;4977245;28;20453;-61
2021/09/14 10:55:12;;;;;;;6.27;5.77;;;;;;;26.88;61.88;96233.13;4977172;28;21002;-61
2021/09/14 10:57:40;;;;;;;6.23;5.63;;;;;;;26.74;61.29;96234.53;4977038;28;20432;-58
2021/09/14 11:00:12;;;;;;;7.03;6.43;;;;;;;26.82;60.47;96239.03;4977413;28;20760;-61
2021/09/14 11:02:38;;;;;;;5.87;5.37;;;;;;;26.95;59.90;96232.56;4976942;28;20441;-59
2021/09/14 11:05:06;;;;;;;6.00;5.40;;;;;;;26.95;60.49;96229.84;4976983;28;20524;-58
2021/09/14 11:07:31;;;;;;;7.27;5.80;;;;;;;26.88;61.70;96240.41;4977076;28;20174;-59
2021/09/14 11:09:59;;;;;;;6.00;5.50;;;;;;;27.10;61.73;96240.03;4977170;28;20753;-61
2021/09/14 11:12:28;;;;;;;5.23;4.57;;;;;;;27.30;63.87;96234.56;4976539;28;20202;-61
2021/09/14 11:14:55;;;;;;;6.00;5.50;;;;;;;27.48;62.67;96227.09;4976370;28;20436;-58
2021/09/14 11:17:28;;;;;;;5.87;5.37;;;;;;;27.69;62.88;96232.34;4976833;28;20418;-58
2021/09/14 11:19:55;;;;;;;7.93;7.13;;;;;;;27.61;58.87;96236.75;4976912;28;20417;-61
2021/09/14 11:22:31;;;;;;;6.13;5.40;;;;;;;27.83;59.75;96233.59;4977449;28;20409;-58
2021/09/14 11:24:57;;;;;;;6.33;5.70;;;;;;;27.74;59.49;96230.22;4976385;28;20440;-62
2021/09/14 11:27:23;;;;;;;6.63;6.03;;;;;;;27.87;59.45;96231.81;4976300;28;20840;-61
2021/09/14 11:29:49;;;;;;;5.43;5.03;;;;;;;27.78;59.18;96233.03;4976511;28;20538;-62
2021/09/14 11:32:15;;;;;;;6.23;5.80;;;;;;;27.87;59.18;96226.41;4976433;28;20540;-58
2021/09/14 11:34:41;;;;;;;6.23;5.70;;;;;;;27.82;58.60;96232.03;4976064;28;20190;-59
2021/09/14 11:37:06;;;;;;;5.90;5.50;;;;;;;27.93;61.91;96237.78;4976378;28;20425;-59
2021/09/14 11:39:37;;;;;;;9.50;6.80;;;;;;;27.81;58.51;96243.19;4976508;28;20178;-61
2021/09/14 11:42:03;;;;;;;6.47;5.97;;;;;;;27.75;59.88;96239.91;4976596;28;20182;-61
2021/09/14 11:44:28;;;;;;;6.50;5.90;;;;;;;27.73;58.72;96246.78;4975659;28;20429;-59
2021/09/14 11:46:54;;;;;;;6.63;6.10;;;;;;;27.99;60.46;96244.56;4976492;28;20249;-58
2021/09/14 11:49:27;;;;;;;5.93;5.43;;;;;;;27.80;59.54;96241.59;4976212;28;20318;-58
2021/09/14 11:52:02;;;;;;;7.23;6.53;;;;;;;27.67;57.94;96246.22;4976201;28;20821;-61
2021/09/14 11:54:35;;;;;;;6.67;5.90;;;;;;;27.62;59.05;96241.03;4975979;28;20401;-61
2021/09/14 11:57:01;;;;;;;7.00;6.40;;;;;;;27.72;59.14;96245.97;4976296;28;20409;-62
2021/09/14 11:59:38;;;;;;;6.47;5.97;;;;;;;27.79;59.56;96248.13;4975864;28;20833;-62
2021/09/14 12:02:04;;;;;;;5.90;5.47;;;;;;;28.02;59.10;96235.75;4976092;28;20410;-61
2021/09/14 12:04:30;;;;;;;5.93;5.33;;;;;;;28.12;59.60;96240.69;4975630;28;20905;-62
2021/09/14 12:06:58;;;;;;;6.40;5.80;;;;;;;28.05;57.96;96246.69;4975879;28;20460;-62
2021/09/14 12:09:25;;;;;;;6.30;5.73;;;;;;;27.88;58.80;96238.00;4976077;28;20757;-62
2021/09/14 12:12:09;;;;;;;6.23;5.70;;;;;;;27.70;58.28;96234.75;4975992;28;20448;-59
2021/09/14 12:14:35;;;;;;;6.07;5.67;;;;;;;27.37;58.77;96234.84;4975194;28;20427;-61
2021/09/14 12:17:03;;;;;;;8.83;5.30;;;;;;;27.64;60.15;96236.09;4976051;28;20402;-59
2021/09/14 12:19:33;;;;;;;6.53;5.90;;;;;;;27.69;59.48;96233.16;4975798;28;20409;-59
2021/09/14 12:21:59;;;;;;;5.70;5.30;;;;;;;27.82;59.50;96237.44;4975808;28;20410;-59
2021/09/14 12:24:25;;;;;;;5.50;5.00;;;;;;;27.84;58.32;96239.78;4975170;28;20429;-59
2021/09/14 12:26:51;;;;;;;5.53;5.03;;;;;;;28.03;59.24;96238.13;4976031;28;20205;-61
2021/09/14 12:29:18;;;;;;;6.50;5.10;;;;;;;27.86;59.72;96234.84;4975101;28;20233;-59